Aviation Digital Data Service (ADDS)

Output produced by METARs form (1123 UTC 25 August 2016)
found at http://aviationweather.gov/adds/metars/
 
KISO 251007Z 2510/2606 VRB03KT P6SM FEW040 
     TEMPO 2510/2512 3SM BR 
     FM251500 15004KT P6SM SCT050 AMD LTD TO CLD VIS AND WIND